createdAt,value
2022-11-02T00:01:45.689Z,9.60
2022-11-02T00:04:32.757Z,9.70
2022-11-02T00:07:19.616Z,9.70
2022-11-02T00:10:07.223Z,9.70
2022-11-02T00:12:54.159Z,9.80
2022-11-02T00:15:40.773Z,9.80
2022-11-02T00:18:29.285Z,9.80
2022-11-02T00:21:18.843Z,9.80
2022-11-02T00:24:07.105Z,9.70
2022-11-02T00:26:55.194Z,9.70
2022-11-02T00:29:42.191Z,9.70
2022-11-02T00:32:29.485Z,9.70
2022-11-02T00:35:17.773Z,9.70
2022-11-02T00:38:04.758Z,9.70
2022-11-02T00:40:52.054Z,9.70
2022-11-02T00:43:38.799Z,9.70
2022-11-02T00:46:25.430Z,9.70
2022-11-02T00:49:12.450Z,9.70
2022-11-02T00:52:00.975Z,9.80
2022-11-02T00:54:47.522Z,9.80
2022-11-02T00:57:34.176Z,9.80
2022-11-02T01:00:21.527Z,9.80
2022-11-02T01:03:08.054Z,9.70
2022-11-02T01:05:55.137Z,9.70
2022-11-02T01:08:43.785Z,9.70
2022-11-02T01:11:30.456Z,9.60
2022-11-02T01:14:17.331Z,9.50
2022-11-02T01:17:04.847Z,9.40
2022-11-02T01:19:52.246Z,9.40
2022-11-02T01:22:39.215Z,9.20
2022-11-02T01:25:27.717Z,9.10
2022-11-02T01:28:14.536Z,9.10
2022-11-02T01:31:01.471Z,9.20
2022-11-02T01:33:48.661Z,9.20
2022-11-02T01:36:35.366Z,9.10
2022-11-02T01:39:21.879Z,9.10
2022-11-02T01:42:20.197Z,9.20
2022-11-02T01:45:07.954Z,9.20
2022-11-02T01:47:56.031Z,9.40
2022-11-02T01:50:43.269Z,9.40
2022-11-02T01:53:32.866Z,9.40
2022-11-02T01:59:19.346Z,9.20
2022-11-02T02:02:08.916Z,9.20
2022-11-02T02:05:07.812Z,9.20
2022-11-02T02:07:56.666Z,9.20
2022-11-02T02:10:43.282Z,9.20
2022-11-02T02:13:30.547Z,9.20
2022-11-02T02:16:31.136Z,9.30
2022-11-02T02:19:38.584Z,9.30
2022-11-02T02:23:11.679Z,9.40
2022-11-02T02:26:37.354Z,9.40
2022-11-02T02:29:29.996Z,9.60
2022-11-02T02:32:21.607Z,9.60
2022-11-02T02:35:16.470Z,9.50
2022-11-02T02:38:07.034Z,9.40
2022-11-02T02:41:00.616Z,9.30
2022-11-02T02:43:50.439Z,9.30
2022-11-02T02:46:46.511Z,9.20
2022-11-02T02:49:41.361Z,9.20
2022-11-02T02:52:29.303Z,9.10
2022-11-02T02:55:21.626Z,9.20
2022-11-02T02:58:12.401Z,9.20
2022-11-02T03:01:01.954Z,9.10
2022-11-02T03:03:50.449Z,9.00
2022-11-02T03:06:38.222Z,8.90
2022-11-02T03:09:32.309Z,8.90
2022-11-02T03:12:33.555Z,8.80
2022-11-02T03:15:24.559Z,8.70
2022-11-02T03:18:19.350Z,8.60
2022-11-02T03:21:14.415Z,8.50
2022-11-02T03:24:06.962Z,8.40
2022-11-02T03:27:06.175Z,8.40
2022-11-02T03:29:57.122Z,8.60
2022-11-02T03:32:54.383Z,8.60
2022-11-02T03:35:48.570Z,8.60
2022-11-02T03:38:44.344Z,8.70
2022-11-02T03:41:33.144Z,8.60
2022-11-02T03:44:24.875Z,8.60
2022-11-02T03:47:14.463Z,8.60
2022-11-02T03:50:03.281Z,8.50
2022-11-02T03:52:55.496Z,8.50
2022-11-02T03:55:49.068Z,8.70
2022-11-02T03:58:37.325Z,8.60
2022-11-02T04:01:24.324Z,8.60
2022-11-02T04:04:11.771Z,8.50
2022-11-02T04:06:58.570Z,8.50
2022-11-02T04:09:45.579Z,8.50
2022-11-02T04:12:50.655Z,8.50
2022-11-02T04:15:37.481Z,8.50
2022-11-02T04:18:41.785Z,8.50
2022-11-02T04:21:29.121Z,8.60
2022-11-02T04:24:34.426Z,8.60
2022-11-02T04:27:21.546Z,8.50
2022-11-02T04:30:11.250Z,8.60
2022-11-02T04:33:15.562Z,8.50
2022-11-02T04:36:03.648Z,8.50
2022-11-02T04:38:49.854Z,8.40
2022-11-02T04:41:45.919Z,8.40
2022-11-02T04:44:33.036Z,8.40
2022-11-02T04:47:21.230Z,8.40
2022-11-02T04:50:08.350Z,8.50
2022-11-02T04:52:57.608Z,8.40
2022-11-02T04:55:47.266Z,8.40
2022-11-02T04:58:35.900Z,8.60
2022-11-02T05:01:25.270Z,8.70
2022-11-02T05:04:13.462Z,8.80
2022-11-02T05:07:01.610Z,8.90
2022-11-02T05:09:49.722Z,8.90
2022-11-02T05:12:36.536Z,9.00
2022-11-02T05:15:23.534Z,9.00
2022-11-02T05:18:13.598Z,9.00
2022-11-02T05:21:04.926Z,9.00
2022-11-02T05:23:51.691Z,9.10
2022-11-02T05:26:38.828Z,9.10
2022-11-02T05:29:25.655Z,9.10
2022-11-02T05:32:12.576Z,9.10
2022-11-02T05:34:59.218Z,9.20
2022-11-02T05:37:47.624Z,9.30
2022-11-02T05:40:37.588Z,9.30
2022-11-02T05:43:24.744Z,9.30
2022-11-02T05:46:11.279Z,9.40
2022-11-02T05:48:58.172Z,9.40
2022-11-02T05:51:45.152Z,9.40
2022-11-02T05:54:33.055Z,9.40
2022-11-02T05:57:19.984Z,9.40
2022-11-02T06:00:08.365Z,9.40
2022-11-02T06:02:58.516Z,9.40
2022-11-02T06:05:45.494Z,9.40
2022-11-02T06:08:33.560Z,9.40
2022-11-02T06:11:21.978Z,9.40
2022-11-02T06:14:09.134Z,9.40
2022-11-02T06:16:55.815Z,9.40
2022-11-02T06:19:43.002Z,9.40
2022-11-02T06:22:29.997Z,9.50
2022-11-02T06:25:16.840Z,9.50
2022-11-02T06:28:04.811Z,9.50
2022-11-02T06:30:52.043Z,9.50
2022-11-02T06:33:38.965Z,9.50
2022-11-02T06:36:27.043Z,9.50
2022-11-02T06:39:14.018Z,9.50
2022-11-02T06:42:01.013Z,9.50
2022-11-02T06:44:48.931Z,9.50
2022-11-02T06:47:37.185Z,9.60
2022-11-02T06:50:24.939Z,9.60
2022-11-02T06:53:11.664Z,9.60
2022-11-02T06:55:59.561Z,9.60
2022-11-02T06:58:46.425Z,9.70
2022-11-02T07:01:35.310Z,9.70
2022-11-02T07:04:23.067Z,9.70
2022-11-02T07:07:09.949Z,9.70
2022-11-02T07:09:56.555Z,9.70
2022-11-02T07:12:43.582Z,9.80
2022-11-02T07:15:30.546Z,9.80
2022-11-02T07:18:18.644Z,9.80
2022-11-02T07:21:05.867Z,9.90
2022-11-02T07:23:53.256Z,10.00
2022-11-02T07:26:40.412Z,10.10
2022-11-02T07:29:27.526Z,10.20
2022-11-02T07:32:14.317Z,10.30
2022-11-02T07:35:02.757Z,10.40
2022-11-02T07:37:56.660Z,10.50
2022-11-02T07:40:43.227Z,10.50
2022-11-02T07:43:30.625Z,10.40
2022-11-02T07:46:17.327Z,10.40
2022-11-02T07:49:03.987Z,10.40
2022-11-02T07:51:52.095Z,10.40
2022-11-02T07:54:44.326Z,10.40
2022-11-02T07:57:31.830Z,10.30
2022-11-02T08:00:18.976Z,11.00
2022-11-02T08:03:07.642Z,11.70
2022-11-02T08:05:54.988Z,12.20
2022-11-02T08:08:43.144Z,12.30
2022-11-02T08:11:30.442Z,12.30
2022-11-02T08:14:17.335Z,12.10
2022-11-02T08:17:04.361Z,12.10
2022-11-02T08:19:51.327Z,12.10
2022-11-02T08:22:38.941Z,12.00
2022-11-02T08:25:27.356Z,11.90
2022-11-02T08:28:16.491Z,11.80
2022-11-02T08:31:03.457Z,11.80
2022-11-02T08:33:50.284Z,11.80
2022-11-02T08:36:38.881Z,11.70
2022-11-02T08:39:26.057Z,11.70
2022-11-02T08:42:14.284Z,11.50
2022-11-02T08:45:01.012Z,11.50
2022-11-02T08:47:48.192Z,11.50
2022-11-02T08:50:36.627Z,11.50
2022-11-02T08:53:23.472Z,11.30
2022-11-02T08:56:10.281Z,11.20
2022-11-02T08:58:58.677Z,11.20
2022-11-02T09:01:45.842Z,11.20
2022-11-02T09:04:32.993Z,11.40
2022-11-02T09:07:19.875Z,11.50
2022-11-02T09:10:08.572Z,11.70
2022-11-02T09:12:55.538Z,11.80
2022-11-02T09:15:43.587Z,11.90
2022-11-02T09:18:31.981Z,11.80
2022-11-02T09:21:18.954Z,11.90
2022-11-02T09:24:06.152Z,11.90
2022-11-02T09:26:54.072Z,11.90
2022-11-02T09:29:40.748Z,11.90
2022-11-02T09:32:33.348Z,12.10
2022-11-02T09:35:20.645Z,12.10
2022-11-02T09:38:07.966Z,12.20
2022-11-02T09:41:06.221Z,12.30
2022-11-02T09:44:02.401Z,12.30
2022-11-02T09:47:17.748Z,12.30
2022-11-02T09:50:02.066Z,12.30
2022-11-02T09:52:54.363Z,12.30
2022-11-02T09:55:48.115Z,12.30
2022-11-02T09:58:38.851Z,12.00
2022-11-02T10:01:43.579Z,11.90
2022-11-02T10:04:54.967Z,12.10
2022-11-02T10:07:57.437Z,12.20
2022-11-02T10:11:02.953Z,12.50
2022-11-02T10:13:59.476Z,12.60
2022-11-02T10:16:50.891Z,12.60
2022-11-02T10:19:41.526Z,13.00
2022-11-02T10:22:33.504Z,13.10
2022-11-02T10:25:22.072Z,13.40
2022-11-02T10:28:15.094Z,13.50
2022-11-02T10:31:03.129Z,13.50
2022-11-02T10:33:52.896Z,13.30
2022-11-02T10:36:50.344Z,13.40
2022-11-02T10:39:47.072Z,13.50
2022-11-02T10:43:05.476Z,13.40
2022-11-02T10:46:18.057Z,13.50
2022-11-02T10:49:14.937Z,13.90
2022-11-02T10:52:01.967Z,14.20
2022-11-02T10:54:51.627Z,14.20
2022-11-02T10:57:40.941Z,14.20
2022-11-02T11:00:33.933Z,14.20
2022-11-02T11:03:20.885Z,14.10
2022-11-02T11:06:07.880Z,14.30
2022-11-02T11:09:01.535Z,14.00
2022-11-02T11:11:57.010Z,14.30
2022-11-02T11:21:05.568Z,14.70
2022-11-02T11:23:52.411Z,14.60
2022-11-02T11:26:39.400Z,14.50
2022-11-02T11:29:25.907Z,14.90
2022-11-02T11:32:17.905Z,14.90
2022-11-02T11:35:11.810Z,15.20
2022-11-02T11:38:01.378Z,15.10
2022-11-02T11:40:53.765Z,14.90
2022-11-02T11:43:41.754Z,15.20
2022-11-02T11:46:41.688Z,15.70
2022-11-02T11:49:48.166Z,15.80
2022-11-02T11:52:40.212Z,15.90
2022-11-02T11:55:29.721Z,15.80
2022-11-02T11:58:21.289Z,15.40
2022-11-02T12:01:17.289Z,15.50
2022-11-02T12:04:04.226Z,15.30
2022-11-02T12:06:58.521Z,15.20
2022-11-02T12:09:54.073Z,15.00
2022-11-02T12:12:57.140Z,14.80
2022-11-02T12:15:57.723Z,14.60
2022-11-02T12:19:02.466Z,14.30
2022-11-02T12:21:59.781Z,14.20
2022-11-02T12:25:06.082Z,14.10
2022-11-02T12:28:04.248Z,13.90
2022-11-02T12:31:01.279Z,13.80
2022-11-02T12:34:01.650Z,13.70
2022-11-02T12:43:29.825Z,13.60
2022-11-02T12:46:28.390Z,13.40
2022-11-02T12:49:35.888Z,13.30
2022-11-02T12:52:36.614Z,13.20
2022-11-02T12:55:31.957Z,13.40
2022-11-02T12:58:24.568Z,13.60
2022-11-02T13:01:17.965Z,13.80
2022-11-02T13:04:14.336Z,13.90
2022-11-02T13:07:05.226Z,13.90
2022-11-02T13:09:58.251Z,14.00
2022-11-02T13:12:49.822Z,14.20
2022-11-02T13:15:39.019Z,14.10
2022-11-02T13:18:31.269Z,14.30
2022-11-02T13:21:22.970Z,14.30
2022-11-02T13:24:18.409Z,14.20
2022-11-02T13:27:21.687Z,14.50
2022-11-02T13:30:17.794Z,14.60
2022-11-02T13:33:09.740Z,14.70
2022-11-02T13:35:56.309Z,14.80
2022-11-02T13:38:47.817Z,15.00
2022-11-02T13:41:48.433Z,15.00
2022-11-02T13:45:03.084Z,15.00
2022-11-02T13:48:19.990Z,15.10
2022-11-02T13:51:14.294Z,15.00
2022-11-02T13:54:04.683Z,14.90
2022-11-02T13:56:55.152Z,14.80
2022-11-02T13:59:46.512Z,14.70
2022-11-02T14:02:38.784Z,14.40
2022-11-02T14:05:30.409Z,14.30
2022-11-02T14:08:26.696Z,14.10
2022-11-02T14:11:33.709Z,14.00
2022-11-02T14:14:23.596Z,14.00
2022-11-02T14:17:15.102Z,14.20
2022-11-02T14:20:04.872Z,14.20
2022-11-02T14:23:24.755Z,14.30
2022-11-02T14:26:55.988Z,14.40
2022-11-02T14:29:52.067Z,14.30
2022-11-02T14:32:56.595Z,14.10
2022-11-02T14:35:47.125Z,13.90
2022-11-02T14:38:53.696Z,13.60
2022-11-02T14:42:04.394Z,13.40
2022-11-02T14:45:26.256Z,13.20
2022-11-02T14:48:17.227Z,12.80
2022-11-02T14:51:08.223Z,12.60
2022-11-02T14:54:00.452Z,12.40
2022-11-02T14:56:56.565Z,12.30
2022-11-02T14:59:57.673Z,12.10
2022-11-02T15:02:45.162Z,12.00
2022-11-02T15:05:36.211Z,11.90
2022-11-02T15:08:27.040Z,11.80
2022-11-02T15:11:45.904Z,11.70
2022-11-02T15:15:02.321Z,11.60
2022-11-02T15:18:27.875Z,11.50
2022-11-02T15:21:25.974Z,11.40
2022-11-02T15:24:18.818Z,11.30
2022-11-02T15:27:08.396Z,11.20
2022-11-02T15:29:55.342Z,11.10
2022-11-02T15:32:48.588Z,10.90
2022-11-02T15:35:38.670Z,10.80
2022-11-02T15:38:33.939Z,10.70
2022-11-02T15:41:30.256Z,10.50
2022-11-02T15:44:32.299Z,10.40
2022-11-02T15:47:29.668Z,10.30
2022-11-02T15:50:36.538Z,10.00
2022-11-02T15:54:00.497Z,9.80
2022-11-02T15:57:05.175Z,9.70
2022-11-02T16:00:10.476Z,9.60
2022-11-02T16:03:03.065Z,9.50
2022-11-02T16:05:51.495Z,9.40
2022-11-02T16:08:39.213Z,9.10
2022-11-02T16:11:25.894Z,8.90
2022-11-02T16:14:18.271Z,8.80
2022-11-02T16:17:04.896Z,8.60
2022-11-02T16:19:51.977Z,8.60
2022-11-02T16:22:41.281Z,8.30
2022-11-02T16:25:38.489Z,8.20
2022-11-02T16:28:28.929Z,8.10
2022-11-02T16:31:19.869Z,7.90
2022-11-02T16:34:19.331Z,7.80
2022-11-02T16:37:10.506Z,7.70
2022-11-02T16:39:59.491Z,7.60
2022-11-02T16:42:48.255Z,7.60
2022-11-02T16:45:43.259Z,7.60
2022-11-02T16:48:32.697Z,7.60
2022-11-02T16:51:20.263Z,7.50
2022-11-02T16:54:30.400Z,7.30
2022-11-02T16:57:22.423Z,7.10
2022-11-02T17:00:19.056Z,7.00
2022-11-02T17:03:10.503Z,7.00
2022-11-02T17:05:59.047Z,6.90
2022-11-02T17:08:51.903Z,6.70
2022-11-02T17:11:43.411Z,6.70
2022-11-02T17:14:32.773Z,6.60
2022-11-02T17:17:41.139Z,6.60
2022-11-02T17:20:28.854Z,6.50
2022-11-02T17:23:33.314Z,6.50
2022-11-02T17:26:34.232Z,6.30
2022-11-02T17:29:34.876Z,6.20
2022-11-02T17:32:22.515Z,6.30
2022-11-02T17:35:17.350Z,6.30
2022-11-02T17:38:04.957Z,6.30
2022-11-02T17:40:52.506Z,6.20
2022-11-02T17:43:38.425Z,6.10
2022-11-02T17:46:26.524Z,6.10
2022-11-02T17:49:13.342Z,6.00
2022-11-02T17:52:00.316Z,5.90
2022-11-02T17:54:47.101Z,5.80
2022-11-02T17:57:34.145Z,5.80
2022-11-02T18:00:21.755Z,5.80
2022-11-02T18:03:17.361Z,5.60
2022-11-02T18:06:04.062Z,5.60
2022-11-02T18:09:08.330Z,5.50
2022-11-02T18:11:54.961Z,5.50
2022-11-02T18:14:41.879Z,5.50
2022-11-02T18:17:32.413Z,5.40
2022-11-02T18:20:23.841Z,5.20
2022-11-02T18:23:15.966Z,5.10
2022-11-02T18:26:02.802Z,5.10
2022-11-02T18:28:49.497Z,5.20
2022-11-02T18:31:37.372Z,5.20
2022-11-02T18:34:24.094Z,5.10
2022-11-02T18:37:12.553Z,5.00
2022-11-02T18:39:59.343Z,4.90
2022-11-02T18:42:47.156Z,4.90
2022-11-02T18:45:34.016Z,4.80
2022-11-02T18:48:20.567Z,4.90
2022-11-02T18:51:07.660Z,4.80
2022-11-02T18:53:57.155Z,4.80
2022-11-02T18:56:43.823Z,4.60
2022-11-02T18:59:30.647Z,4.50
2022-11-02T19:02:17.882Z,4.50
2022-11-02T19:05:25.450Z,4.50
2022-11-02T19:08:29.700Z,4.50
2022-11-02T19:11:17.992Z,4.40
2022-11-02T19:14:05.654Z,4.40
2022-11-02T19:16:52.668Z,4.30
2022-11-02T19:19:40.997Z,4.30
2022-11-02T19:22:28.333Z,4.30
2022-11-02T19:25:16.232Z,4.30
2022-11-02T19:28:05.475Z,4.20
2022-11-02T19:30:52.438Z,4.20
2022-11-02T19:33:39.243Z,4.10
2022-11-02T19:36:26.435Z,4.10
2022-11-02T19:39:13.363Z,4.10
2022-11-02T19:42:00.066Z,4.10
2022-11-02T19:44:48.676Z,4.00
2022-11-02T19:47:35.645Z,4.00
2022-11-02T19:50:22.390Z,3.90
2022-11-02T19:53:09.609Z,3.90
2022-11-02T19:55:56.617Z,4.00
2022-11-02T19:58:45.338Z,4.00
2022-11-02T20:01:35.050Z,3.90
2022-11-02T20:04:22.124Z,3.90
2022-11-02T20:07:08.983Z,3.90
2022-11-02T20:09:58.759Z,3.80
2022-11-02T20:12:46.655Z,3.70
2022-11-02T20:15:37.967Z,3.60
2022-11-02T20:18:29.407Z,3.50
2022-11-02T20:21:17.727Z,3.50
2022-11-02T20:24:05.160Z,3.40
2022-11-02T20:26:56.126Z,3.40
2022-11-02T20:29:43.873Z,3.40
2022-11-02T20:32:31.004Z,3.40
2022-11-02T20:35:24.609Z,3.30
2022-11-02T20:38:11.664Z,3.40
2022-11-02T20:41:05.985Z,3.30
2022-11-02T20:43:54.756Z,3.30
2022-11-02T20:46:42.421Z,3.20
2022-11-02T20:49:49.399Z,3.20
2022-11-02T20:52:39.085Z,3.20
2022-11-02T20:55:26.434Z,3.10
2022-11-02T20:58:13.248Z,3.00
2022-11-02T21:01:01.476Z,3.00
2022-11-02T21:03:48.478Z,3.00
2022-11-02T21:06:35.186Z,3.00
2022-11-02T21:09:23.954Z,3.10
2022-11-02T21:12:32.496Z,3.10
2022-11-02T21:15:19.311Z,3.10
2022-11-02T21:18:06.166Z,3.00
2022-11-02T21:20:52.900Z,2.90
2022-11-02T21:23:39.964Z,2.90
2022-11-02T21:26:28.180Z,2.90
2022-11-02T21:29:14.987Z,2.90
2022-11-02T21:32:02.044Z,2.90
2022-11-02T21:34:54.886Z,2.80
2022-11-02T21:37:45.568Z,2.80
2022-11-02T21:40:32.545Z,2.90
2022-11-02T21:43:21.547Z,2.80
2022-11-02T21:46:09.975Z,2.80
2022-11-02T21:48:57.217Z,2.80
2022-11-02T21:51:44.166Z,2.80
2022-11-02T21:54:30.899Z,2.80
2022-11-02T21:57:17.936Z,2.70
2022-11-02T22:00:07.244Z,2.60
2022-11-02T22:02:55.165Z,2.70
2022-11-02T22:05:59.645Z,2.60
2022-11-02T22:08:46.794Z,2.60
2022-11-02T22:11:33.788Z,2.60
2022-11-02T22:14:20.962Z,2.60
2022-11-02T22:17:16.860Z,2.60
2022-11-02T22:20:15.546Z,2.60
2022-11-02T22:23:03.095Z,2.70
2022-11-02T22:25:49.921Z,2.60
2022-11-02T22:28:38.394Z,2.70
2022-11-02T22:31:27.510Z,2.60
2022-11-02T22:34:17.100Z,2.70
2022-11-02T22:37:18.144Z,2.70
2022-11-02T22:40:05.731Z,2.50
2022-11-02T22:42:55.952Z,2.40
2022-11-02T22:45:43.166Z,2.40
2022-11-02T22:48:30.395Z,2.40
2022-11-02T22:51:20.983Z,2.40
2022-11-02T22:54:21.883Z,2.40
2022-11-02T22:57:11.072Z,2.50
2022-11-02T22:59:57.930Z,2.50
2022-11-02T23:02:44.861Z,2.50
2022-11-02T23:05:32.108Z,2.50
2022-11-02T23:08:20.788Z,2.50
2022-11-02T23:11:24.031Z,2.50
2022-11-02T23:14:13.093Z,2.50
2022-11-02T23:16:59.785Z,2.40
2022-11-02T23:19:46.625Z,2.40
2022-11-02T23:22:50.710Z,2.30
2022-11-02T23:25:38.703Z,2.30
2022-11-02T23:28:42.923Z,2.20
2022-11-02T23:31:49.287Z,2.20
2022-11-02T23:34:36.090Z,2.20
2022-11-02T23:37:21.970Z,2.10
2022-11-02T23:40:10.683Z,2.10
2022-11-02T23:42:58.970Z,2.10
2022-11-02T23:45:45.933Z,2.10
2022-11-02T23:48:32.842Z,2.10
2022-11-02T23:51:36.966Z,2.00
2022-11-02T23:54:41.398Z,2.00
2022-11-02T23:57:28.217Z,1.90
